Time;durP1;ratioP1;P1;durP2;ratioP2;P2;SDS_P1;SDS_P2;PMS_P1;PMS_P2;Temp;Humidity;BMP_temperature;BMP_pressure;BME280_temperature;BME280_humidity;BME280_pressure;Samples;Min_cycle;Max_cycle;Signal;HPM_P1;HPM_P2
2021/06/17 03:36:01;;;;;;;;;;;;;;;17.56;51.75;100220.75;5093217;27;2171174;-91
2021/06/17 03:38:31;;;;;;;12.60;3.47;;;;;;;17.57;51.56;100218.78;5145753;27;19922;-85
2021/06/17 03:40:58;;;;;;;19.23;3.50;;;;;;;17.52;51.10;100196.91;5192279;27;20378;-87
2021/06/17 03:43:26;;;;;;;10.27;3.35;;;;;;;17.66;52.28;100202.13;5174024;27;20042;-91
2021/06/17 03:45:54;;;;;;;10.25;3.25;;;;;;;17.84;49.92;100226.53;5192161;27;20118;-85
2021/06/17 03:48:21;;;;;;;10.75;3.38;;;;;;;17.80;50.92;100222.03;5192302;27;20057;-86
2021/06/17 03:50:47;;;;;;;;;;;;;;;17.94;49.28;100227.28;5192896;27;20030;-85
2021/06/17 03:53:15;;;;;;;75.05;8.13;;;;;;;18.04;51.37;100232.38;5156067;27;20486;-85
2021/06/17 03:55:43;;;;;;;25.52;4.65;;;;;;;18.07;52.36;100223.41;5163649;27;20090;-85
2021/06/17 03:58:10;;;;;;;11.63;3.33;;;;;;;18.17;49.63;100236.00;5170912;27;20046;-86
2021/06/17 04:00:36;;;;;;;14.32;3.75;;;;;;;18.25;49.67;100235.91;5160352;27;20072;-85
2021/06/17 04:03:09;;;;;;;26.55;3.63;;;;;;;18.15;49.72;100194.84;5152545;27;20047;-86
2021/06/17 04:05:36;;;;;;;17.10;3.55;;;;;;;18.30;49.36;100219.06;5135472;27;20069;-88
2021/06/17 04:08:02;;;;;;;12.68;3.67;;;;;;;18.49;49.77;100240.69;5152456;27;20045;-80
2021/06/17 04:10:31;;;;;;;13.93;3.25;;;;;;;18.46;48.18;100235.84;5177219;27;20037;-86
2021/06/17 04:12:59;;;;;;;18.38;3.85;;;;;;;18.61;48.82;100247.38;5187140;27;20042;-81
2021/06/17 04:15:27;;;;;;;10.48;3.47;;;;;;;18.65;48.90;100245.56;5155603;27;20037;-81
2021/06/17 04:17:59;;;;;;;12.48;3.38;;;;;;;18.67;48.35;100240.47;5190988;27;20038;-83
2021/06/17 04:20:35;;;;;;;22.92;6.13;;;;;;;18.67;48.41;100229.41;5189799;27;20531;-83
2021/06/17 04:23:05;;;;;;;11.45;3.90;;;;;;;18.83;49.90;100249.75;5191701;27;20528;-83
2021/06/17 04:25:35;;;;;;;11.82;3.38;;;;;;;18.83;49.89;100241.44;5171450;27;20065;-84
2021/06/17 04:28:21;;;;;;;15.80;3.55;;;;;;;19.05;49.24;100261.56;5151740;27;20170;-90
2021/06/17 04:30:49;;;;;;;9.23;3.20;;;;;;;19.08;47.60;100241.47;5106564;28;20051;-86
2021/06/17 04:33:19;;;;;;;12.73;3.17;;;;;;;19.15;48.04;100258.31;5094941;28;20047;-81
2021/06/17 04:35:46;;;;;;;8.10;3.35;;;;;;;19.21;46.38;100257.72;5092741;28;20605;-81
2021/06/17 04:38:15;;;;;;;10.48;2.95;;;;;;;19.29;45.68;100255.16;5092525;28;20171;-84
2021/06/17 04:40:42;;;;;;;9.15;3.58;;;;;;;19.37;45.31;100262.53;5100123;28;20116;-81
2021/06/17 04:43:09;;;;;;;;;;;;;;;19.52;46.78;100266.56;5113244;28;20094;-81
2021/06/17 04:45:36;;;;;;;10.15;3.20;;;;;;;19.60;45.00;100263.69;5095754;28;20303;-82
2021/06/17 04:48:08;;;;;;;17.52;2.92;;;;;;;19.66;45.55;100269.78;5112729;28;20035;-79
2021/06/17 04:50:40;;;;;;;8.43;3.03;;;;;;;19.63;44.46;100273.25;5112561;28;20062;-78
2021/06/17 04:53:10;;;;;;;10.93;2.72;;;;;;;19.69;44.22;100272.66;5090540;28;20497;-92
2021/06/17 04:55:55;;;;;;;15.23;3.03;;;;;;;19.78;43.93;100272.53;5110086;28;20133;-79
2021/06/17 04:58:24;;;;;;;14.45;3.10;;;;;;;19.79;43.89;100271.38;5102244;28;20044;-79
2021/06/17 05:00:51;;;;;;;12.02;3.22;;;;;;;19.86;43.27;100274.34;5099137;27;20040;-83
2021/06/17 05:03:17;;;;;;;18.65;3.50;;;;;;;19.83;43.83;100260.38;5175673;27;20042;-79
2021/06/17 05:05:44;;;;;;;21.52;3.55;;;;;;;20.00;43.81;100281.47;5175431;27;20033;-85
2021/06/17 05:10:51;;;;;;;23.80;4.10;;;;;;;20.19;44.56;100274.09;5161710;27;20034;-88
2021/06/17 05:13:19;;;;;;;20.45;3.35;;;;;;;20.29;43.03;100272.78;5169828;27;20118;-78
2021/06/17 05:15:46;;;;;;;12.93;2.65;;;;;;;20.32;42.18;100283.19;5155087;27;20057;-79
2021/06/17 05:18:12;;;;;;;12.48;2.55;;;;;;;20.36;42.10;100284.09;5155075;27;20522;-80
2021/06/17 05:20:38;;;;;;;9.47;2.00;;;;;;;20.38;41.81;100286.50;5168549;27;20391;-79
2021/06/17 05:23:04;;;;;;;9.87;2.10;;;;;;;20.46;40.59;100287.50;5176163;27;20328;-80
2021/06/17 05:25:33;;;;;;;10.65;2.63;;;;;;;20.49;40.50;100284.81;5176415;27;20034;-79
2021/06/17 05:27:59;;;;;;;7.77;2.00;;;;;;;20.49;39.89;100278.47;5175440;27;20030;-81
2021/06/17 05:30:25;;;;;;;17.02;2.72;;;;;;;20.54;40.44;100283.81;5157510;27;20422;-80
2021/06/17 05:32:51;;;;;;;22.08;2.50;;;;;;;20.63;39.78;100287.22;5157613;27;20053;-80
2021/06/17 05:35:17;;;;;;;17.23;2.57;;;;;;;20.74;40.11;100290.28;5176009;27;20038;-86
2021/06/17 05:37:43;;;;;;;12.37;2.30;;;;;;;20.85;39.11;100296.91;5174635;27;20090;-83
2021/06/17 05:40:09;;;;;;;12.95;3.05;;;;;;;20.99;38.13;100291.72;5175919;27;20038;-90
2021/06/17 05:42:37;;;;;;;21.55;3.22;;;;;;;21.09;37.87;100293.13;5165380;27;20163;-82
2021/06/17 05:45:04;;;;;;;22.77;3.42;;;;;;;21.23;38.81;100287.91;5123432;27;20034;-80
2021/06/17 05:47:30;;;;;;;;;;;;;;;21.18;37.41;100293.75;5157224;27;20034;-80
2021/06/17 05:49:55;;;;;;;8.38;1.70;;;;;;;21.08;37.54;100292.31;5154196;27;19938;-80
2021/06/17 05:52:21;;;;;;;15.33;2.27;;;;;;;21.07;37.38;100298.25;5154180;27;20043;-82
2021/06/17 05:54:47;;;;;;;4.50;2.13;;;;;;;21.08;38.17;100302.63;5158431;27;20053;-89
2021/06/17 05:57:13;;;;;;;12.83;2.40;;;;;;;21.15;38.97;100304.78;5146492;27;20253;-80
2021/06/17 05:59:39;;;;;;;7.17;2.17;;;;;;;21.05;38.56;100283.88;5174062;27;20174;-81
2021/06/17 06:02:06;;;;;;;16.45;2.40;;;;;;;21.07;40.39;100307.41;5166883;27;20143;-81
2021/06/17 06:04:32;;;;;;;9.65;2.10;;;;;;;21.14;39.22;100309.53;5159589;27;20125;-84
2021/06/17 06:06:58;;;;;;;15.00;2.30;;;;;;;21.02;38.21;100301.28;5157086;27;20187;-81
2021/06/17 06:09:24;;;;;;;8.37;2.20;;;;;;;21.05;40.30;100311.69;5158432;27;20046;-88
2021/06/17 06:11:50;;;;;;;7.43;2.22;;;;;;;21.08;40.10;100302.63;5163139;27;20396;-87
2021/06/17 06:14:16;;;;;;;10.93;1.93;;;;;;;21.07;36.51;100307.41;5171736;27;20035;-82
2021/06/17 06:16:42;;;;;;;9.73;2.27;;;;;;;21.21;38.62;100317.25;5125523;27;20087;-81
2021/06/17 06:19:09;;;;;;;14.93;2.50;;;;;;;21.24;37.75;100314.56;5154194;27;20042;-81
2021/06/17 06:21:36;;;;;;;29.30;3.30;;;;;;;21.24;36.58;100309.00;5157518;27;20037;-85
2021/06/17 06:24:05;;;;;;;7.20;1.83;;;;;;;21.20;35.64;100316.44;5173234;27;20048;-91
2021/06/17 06:26:33;;;;;;;4.65;1.65;;;;;;;21.24;36.72;100316.53;5168605;27;20034;-81
2021/06/17 06:28:59;;;;;;;6.00;2.20;;;;;;;21.19;35.08;100317.63;5164656;27;20031;-92
2021/06/17 06:31:25;;;;;;;21.43;3.00;;;;;;;21.23;35.29;100326.84;5164899;27;20038;-81
2021/06/17 06:33:51;;;;;;;6.97;2.07;;;;;;;21.17;35.56;100317.16;5158221;27;20042;-89
2021/06/17 06:36:17;;;;;;;29.08;4.95;;;;;;;21.30;36.10;100337.34;5168379;27;20042;-80
2021/06/17 06:38:45;;;;;;;21.00;2.85;;;;;;;21.33;32.70;100334.66;5169751;27;20042;-81
2021/06/17 06:41:11;;;;;;;25.37;3.60;;;;;;;21.42;34.77;100330.88;5158304;27;20121;-85
2021/06/17 06:43:37;;;;;;;4.30;1.70;;;;;;;21.47;35.36;100325.84;5135908;27;20752;-87
2021/06/17 06:46:04;;;;;;;17.65;2.85;;;;;;;21.56;37.16;100328.44;5138990;27;20031;-80
2021/06/17 06:48:31;;;;;;;8.70;1.67;;;;;;;21.65;35.95;100340.16;5157874;27;20406;-88
2021/06/17 06:50:57;;;;;;;9.00;1.92;;;;;;;21.58;35.37;100326.09;5157103;27;20042;-89
2021/06/17 06:53:23;;;;;;;16.03;2.23;;;;;;;21.53;34.13;100335.53;5163665;27;20042;-83
2021/06/17 06:55:48;;;;;;;18.40;2.40;;;;;;;21.62;34.93;100338.09;5161620;27;20042;-81
2021/06/17 06:58:14;;;;;;;10.60;1.77;;;;;;;21.53;34.32;100329.97;5154097;27;20623;-92
2021/06/17 07:00:45;;;;;;;4.75;1.70;;;;;;;21.56;34.66;100334.81;5153622;27;20046;-81
2021/06/17 07:03:12;;;;;;;12.57;2.15;;;;;;;21.67;35.55;100345.38;5166018;27;20034;-81
2021/06/17 07:05:37;;;;;;;;;;;;;;;21.64;34.37;100348.88;5167785;27;20034;-90
2021/06/17 07:08:09;;;;;;;5.85;1.70;;;;;;;21.66;33.23;100352.13;5170962;27;20368;-83
2021/06/17 07:10:37;;;;;;;13.77;1.50;;;;;;;21.66;34.59;100350.16;5159042;27;20054;-91
2021/06/17 07:15:29;;;;;;;18.30;3.50;;;;;;;21.88;36.85;100364.53;5172349;27;20038;-91
2021/06/17 07:17:55;;;;;;;4.18;1.40;;;;;;;21.84;33.81;100370.03;5165401;27;20038;-88
2021/06/17 07:22:46;;;;;;;13.57;1.73;;;;;;;21.96;34.08;100374.69;5173704;27;20050;-87
2021/06/17 07:27:39;;;;;;;4.67;1.43;;;;;;;22.08;34.14;100362.59;5162478;27;19919;-83
2021/06/17 07:30:06;;;;;;;23.17;5.15;;;;;;;22.18;34.00;100371.19;5170664;27;20810;-91
2021/06/17 07:32:34;;;;;;;21.25;2.65;;;;;;;22.02;34.81;100367.66;5173501;27;20525;-87
2021/06/17 07:35:00;;;;;;;11.47;2.20;;;;;;;21.95;33.51;100373.88;5154364;27;20039;-90
2021/06/17 07:37:26;;;;;;;8.13;1.80;;;;;;;21.96;34.72;100371.88;5153461;27;20050;-91
2021/06/17 07:39:54;;;;;;;11.50;1.85;;;;;;;21.95;32.63;100367.47;5154017;27;20415;-83
2021/06/17 07:42:20;;;;;;;3.57;1.57;;;;;;;22.06;33.30;100371.31;5149381;27;20052;-83
2021/06/17 07:44:47;;;;;;;3.03;1.60;;;;;;;22.17;32.84;100379.91;5156204;27;20049;-84
2021/06/17 07:47:13;;;;;;;;;;;;;;;22.24;34.54;100380.88;5174999;27;20050;-83
2021/06/17 07:49:39;;;;;;;3.95;1.67;;;;;;;22.27;33.46;100368.19;5154384;27;19925;-84
2021/06/17 07:52:06;;;;;;;9.00;1.90;;;;;;;22.31;35.49;100387.75;5153550;27;20047;-83
2021/06/17 07:54:32;;;;;;;11.43;2.20;;;;;;;22.36;34.41;100377.16;5153857;27;20046;-92
2021/06/17 07:59:27;;;;;;;6.03;1.90;;;;;;;22.24;33.78;100369.72;5153568;27;20133;-90
2021/06/17 08:01:53;;;;;;;3.10;1.55;;;;;;;22.33;33.73;100382.66;5101057;27;20039;-88
2021/06/17 08:06:45;;;;;;;12.73;2.40;;;;;;;22.25;33.09;100387.25;5154573;27;20507;-82
2021/06/17 08:09:18;;;;;;;11.77;1.90;;;;;;;22.32;32.35;100390.19;5141767;27;20283;-93
2021/06/17 08:11:46;;;;;;;6.45;1.67;;;;;;;22.43;32.76;100388.44;5168688;27;20042;-80
2021/06/17 08:14:16;;;;;;;10.45;2.10;;;;;;;22.44;33.38;100389.22;5163096;27;20407;-81
2021/06/17 08:16:43;;;;;;;12.57;1.90;;;;;;;22.48;32.59;100395.69;5162540;27;20053;-80
2021/06/17 08:19:09;;;;;;;;;;;;;;;22.61;32.45;100390.75;5160460;27;20038;-82
2021/06/17 08:21:36;;;;;;;14.25;2.05;;;;;;;22.77;33.06;100390.66;5178625;27;19918;-79
2021/06/17 08:24:03;;;;;;;8.52;2.95;;;;;;;22.89;32.43;100396.09;5177598;27;20034;-79
2021/06/17 08:26:32;;;;;;;34.50;4.10;;;;;;;22.75;32.28;100385.47;5178184;27;20046;-79
2021/06/17 08:29:00;;;;;;;9.75;2.58;;;;;;;22.88;33.20;100397.25;5178186;27;20034;-79
2021/06/17 08:31:28;;;;;;;13.85;2.92;;;;;;;22.74;32.45;100395.00;5145401;27;20069;-89
2021/06/17 08:33:55;;;;;;;10.25;2.20;;;;;;;22.66;32.04;100405.22;5157562;27;20039;-79
2021/06/17 08:36:22;;;;;;;4.15;1.52;;;;;;;22.63;32.09;100402.34;5156453;27;20414;-91
2021/06/17 08:38:50;;;;;;;18.17;2.42;;;;;;;22.49;32.52;100391.75;5156531;27;20103;-80
2021/06/17 08:41:16;;;;;;;20.23;2.97;;;;;;;22.81;33.78;100405.47;5156486;27;20510;-81
2021/06/17 08:43:42;;;;;;;14.57;2.63;;;;;;;22.95;34.40;100403.81;5156730;27;20038;-80
2021/06/17 08:46:08;;;;;;;8.77;2.00;;;;;;;22.96;33.52;100387.88;5169006;27;20107;-78
2021/06/17 08:48:35;;;;;;;7.32;1.90;;;;;;;23.06;32.70;100395.63;5177788;27;20282;-78
2021/06/17 08:51:02;;;;;;;5.07;1.65;;;;;;;23.19;32.48;100394.28;5178059;27;20053;-80
2021/06/17 08:53:29;;;;;;;10.00;2.58;;;;;;;23.11;30.92;100395.34;5177665;27;20574;-80
2021/06/17 08:55:55;;;;;;;5.85;1.67;;;;;;;23.13;31.77;100403.31;5178719;27;20063;-79
2021/06/17 08:58:22;;;;;;;8.25;1.90;;;;;;;23.27;31.54;100388.81;5167318;27;20643;-79
2021/06/17 09:00:50;;;;;;;8.75;1.77;;;;;;;23.40;32.51;100391.03;5164842;27;20056;-89
2021/06/17 09:03:18;;;;;;;12.65;2.00;;;;;;;23.35;30.01;100385.78;5192099;27;20093;-81
2021/06/17 09:05:50;;;;;;;14.70;2.13;;;;;;;23.30;30.93;100393.66;5162303;27;20076;-94
2021/06/17 09:08:24;;;;;;;10.95;2.53;;;;;;;23.30;31.03;100382.47;5159378;27;20045;-91
2021/06/17 09:10:51;;;;;;;40.70;3.83;;;;;;;23.34;30.72;100372.97;5177211;27;20044;-80
2021/06/17 09:13:18;;;;;;;20.33;3.60;;;;;;;23.49;31.87;100387.97;5158363;27;20134;-80
2021/06/17 09:15:54;;;;;;;8.93;2.58;;;;;;;23.32;30.34;100372.56;5177232;27;20134;-94
2021/06/17 09:18:43;;;;;;;8.32;1.98;;;;;;;23.35;30.41;100382.19;5168138;27;20101;-94
2021/06/17 09:21:10;;;;;;;5.32;1.85;;;;;;;23.35;31.40;100388.56;5172103;27;20054;-82
2021/06/17 09:23:42;;;;;;;14.52;2.65;;;;;;;23.30;31.18;100386.06;5170305;27;20034;-80
2021/06/17 09:26:12;;;;;;;6.53;1.92;;;;;;;23.19;31.62;100390.69;5156163;27;20065;-87
2021/06/17 09:28:46;;;;;;;5.85;1.77;;;;;;;23.35;31.86;100390.56;5137285;27;20172;-93
2021/06/17 09:31:20;;;;;;;4.47;2.20;;;;;;;23.44;31.16;100377.94;5156265;27;20030;-92
2021/06/17 09:33:50;;;;;;;11.65;2.17;;;;;;;23.54;30.46;100370.09;5155692;27;20430;-87
2021/06/17 09:36:21;;;;;;;3.53;1.90;;;;;;;23.58;30.70;100379.34;5155858;27;20122;-91
2021/06/17 09:38:54;;;;;;;11.85;1.95;;;;;;;23.59;31.88;100380.97;5155572;27;20404;-84
2021/06/17 09:41:29;;;;;;;16.73;2.30;;;;;;;23.63;31.85;100387.41;5155539;27;20046;-92
2021/06/17 09:43:56;;;;;;;6.78;2.25;;;;;;;23.78;30.50;100378.09;5174609;27;20424;-92
2021/06/17 09:46:22;;;;;;;;;;;;;;;23.90;30.90;100377.06;5176408;27;20053;-79
2021/06/17 09:48:51;;;;;;;25.80;2.75;;;;;;;24.01;31.03;100374.44;5176934;27;19918;-82
2021/06/17 09:51:52;;;;;;;8.15;2.30;;;;;;;23.96;30.09;100369.97;5158425;27;20038;-80
2021/06/17 09:54:21;;;;;;;11.75;2.60;;;;;;;23.94;29.09;100368.72;5174431;27;20052;-80
2021/06/17 09:56:56;;;;;;;53.13;3.28;;;;;;;23.76;29.43;100382.44;5175865;27;20086;-86
2021/06/17 09:59:44;;;;;;;19.67;2.28;;;;;;;23.70;29.32;100368.00;5175412;27;20034;-80
2021/06/17 10:02:17;;;;;;;6.65;1.77;;;;;;;23.70;29.38;100370.78;5176255;27;20038;-94
2021/06/17 10:04:44;;;;;;;5.60;2.13;;;;;;;23.78;28.88;100375.31;5140637;27;20513;-92
2021/06/17 10:07:11;;;;;;;7.65;2.17;;;;;;;23.86;28.49;100367.81;5136921;27;20129;-85
2021/06/17 10:09:37;;;;;;;13.93;2.30;;;;;;;24.00;31.00;100372.78;5155217;27;20146;-79
2021/06/17 10:12:06;;;;;;;7.43;2.08;;;;;;;24.11;28.55;100368.19;5154498;27;20035;-80
2021/06/17 10:14:32;;;;;;;10.13;1.90;;;;;;;23.92;28.12;100366.31;5158688;27;20034;-82
2021/06/17 10:16:59;;;;;;;9.32;1.92;;;;;;;23.80;29.19;100353.38;5156670;27;20048;-80
2021/06/17 10:19:31;;;;;;;17.02;2.83;;;;;;;23.80;28.52;100363.75;5175085;27;20044;-79
2021/06/17 10:21:57;;;;;;;3.55;1.70;;;;;;;23.91;27.99;100359.94;5175296;27;20030;-80
2021/06/17 10:24:27;;;;;;;5.90;1.88;;;;;;;24.19;31.06;100364.28;5174986;27;20045;-79
2021/06/17 10:26:56;;;;;;;16.58;2.40;;;;;;;24.32;28.12;100378.81;5175754;27;20030;-80
2021/06/17 10:29:28;;;;;;;3.65;1.90;;;;;;;24.24;29.02;100366.75;5174601;27;20042;-85
2021/06/17 10:31:56;;;;;;;12.20;2.22;;;;;;;24.21;30.45;100361.91;5175381;27;20050;-92
2021/06/17 10:34:31;;;;;;;9.57;1.77;;;;;;;24.18;29.99;100368.25;5175042;27;20390;-80
2021/06/17 10:37:17;;;;;;;8.60;1.88;;;;;;;24.21;29.55;100367.50;5176062;27;20510;-84
2021/06/17 10:40:04;;;;;;;5.25;1.60;;;;;;;24.21;29.10;100366.72;5176657;27;20050;-92
2021/06/17 10:42:35;;;;;;;14.10;2.30;;;;;;;24.36;29.69;100374.06;5176436;27;20042;-91
2021/06/17 10:45:11;;;;;;;114.10;6.45;;;;;;;24.49;28.72;100366.25;5170236;27;20443;-78
2021/06/17 10:47:43;;;;;;;7.63;2.15;;;;;;;24.61;27.94;100368.81;5175633;27;20049;-79
2021/06/17 10:50:19;;;;;;;14.55;2.10;;;;;;;24.81;29.81;100363.81;5174884;27;20080;-88
2021/06/17 10:52:53;;;;;;;7.65;2.05;;;;;;;24.72;29.64;100360.53;5175083;27;20054;-80
2021/06/17 10:55:22;;;;;;;16.50;2.47;;;;;;;24.80;29.22;100354.63;5174997;27;20049;-80
2021/06/17 10:57:51;;;;;;;16.55;2.38;;;;;;;24.48;28.12;100348.69;5174659;27;20045;-80
2021/06/17 11:00:29;;;;;;;8.93;2.40;;;;;;;24.57;28.68;100356.78;5174584;27;20049;-79
2021/06/17 11:03:05;;;;;;;9.70;2.65;;;;;;;24.74;29.84;100358.97;5174815;27;20050;-83
2021/06/17 11:05:32;;;;;;;10.88;2.28;;;;;;;24.72;28.48;100361.31;5174734;27;20542;-79
2021/06/17 11:08:34;;;;;;;8.32;2.30;;;;;;;24.71;27.94;100372.91;5175717;27;20133;-83
2021/06/17 11:11:07;;;;;;;7.60;2.20;;;;;;;24.72;28.93;100374.50;5070702;28;20097;-91
2021/06/17 11:16:33;;;;;;;8.93;2.00;;;;;;;24.74;28.31;100350.56;5070139;28;20125;-84
2021/06/17 11:19:09;;;;;;;18.83;2.53;;;;;;;24.89;27.44;100367.47;5106399;27;20467;-79
2021/06/17 11:21:35;;;;;;;;;;;;;;;24.67;27.88;100369.25;5154486;27;20095;-90
2021/06/17 11:24:07;;;;;;;10.02;2.05;;;;;;;24.76;28.78;100372.53;5158730;27;19955;-82
2021/06/17 11:26:45;;;;;;;24.77;3.72;;;;;;;24.83;28.88;100370.66;5174607;27;20031;-91
2021/06/17 11:29:15;;;;;;;17.80;2.10;;;;;;;25.09;28.42;100371.66;5174645;27;20089;-79
2021/06/17 11:31:43;;;;;;;17.38;2.58;;;;;;;25.36;28.61;100365.94;5174409;27;20046;-89
2021/06/17 11:34:11;;;;;;;14.27;2.47;;;;;;;25.43;27.21;100358.41;5152970;27;20043;-81
2021/06/17 11:36:48;;;;;;;6.88;2.42;;;;;;;25.30;28.56;100357.91;5155558;27;20130;-93
2021/06/17 11:39:35;;;;;;;11.52;2.08;;;;;;;25.25;27.35;100344.25;5156775;27;20064;-91
2021/06/17 11:42:04;;;;;;;16.20;2.67;;;;;;;25.20;28.76;100358.63;5158774;27;20042;-91
2021/06/17 11:44:33;;;;;;;12.77;2.80;;;;;;;25.31;27.35;100367.09;5177559;27;20156;-90
2021/06/17 11:47:08;;;;;;;11.43;2.65;;;;;;;25.21;26.37;100353.81;5178772;27;20113;-80
2021/06/17 11:52:17;;;;;;;7.70;2.57;;;;;;;25.27;28.20;100349.47;5178274;27;20038;-79
2021/06/17 11:57:10;;;;;;;;;;;;;;;25.81;25.77;100361.88;5179022;27;20030;-79
2021/06/17 11:59:42;;;;;;;13.05;2.17;;;;;;;25.68;28.18;100350.16;5178329;27;19961;-80
2021/06/17 12:02:27;;;;;;;13.57;2.55;;;;;;;25.55;26.99;100355.28;5177983;27;20048;-80
2021/06/17 12:04:55;;;;;;;5.63;2.40;;;;;;;25.41;27.87;100348.78;5177890;27;20042;-79
2021/06/17 12:07:28;;;;;;;23.77;3.10;;;;;;;25.65;29.18;100356.53;5171861;27;20039;-79
2021/06/17 12:10:08;;;;;;;14.00;3.05;;;;;;;25.45;27.04;100358.00;5156774;27;20041;-79
2021/06/17 12:12:36;;;;;;;15.75;3.92;;;;;;;25.69;26.87;100356.56;5157501;27;20118;-83
2021/06/17 12:17:32;;;;;;;7.90;1.92;;;;;;;25.53;26.35;100346.47;5158217;27;20105;-79
2021/06/17 12:20:16;;;;;;;3.40;2.10;;;;;;;25.81;25.83;100359.06;5157097;27;20083;-92
2021/06/17 12:22:56;;;;;;;19.27;2.78;;;;;;;26.00;27.07;100355.19;5138391;27;20034;-81
2021/06/17 12:25:24;;;;;;;20.85;3.47;;;;;;;25.99;26.69;100360.00;5156765;27;20415;-80
2021/06/17 12:27:51;;;;;;;8.60;2.72;;;;;;;26.04;26.53;100358.81;5156811;27;20042;-80
2021/06/17 12:30:43;;;;;;;20.50;3.25;;;;;;;25.99;26.46;100356.34;5156693;27;20046;-80
2021/06/17 12:33:15;;;;;;;8.15;2.40;;;;;;;25.90;25.32;100353.94;5156720;27;20034;-80
2021/06/17 12:35:56;;;;;;;26.50;4.07;;;;;;;25.74;27.51;100339.41;5156753;27;20049;-80
2021/06/17 12:38:27;;;;;;;9.18;2.50;;;;;;;25.82;26.16;100363.47;5156800;27;20042;-80
2021/06/17 12:41:13;;;;;;;7.20;2.65;;;;;;;25.99;23.95;100357.19;5157661;27;20526;-86
2021/06/17 12:43:52;;;;;;;14.40;2.85;;;;;;;25.83;24.08;100339.06;5137747;27;20074;-80
2021/06/17 12:46:25;;;;;;;21.30;3.30;;;;;;;25.86;23.57;100361.53;5161219;27;20505;-80
2021/06/17 12:54:23;;;;;;;6.97;2.20;;;;;;;25.74;24.56;100353.41;5177376;27;20119;-92
2021/06/17 12:57:01;;;;;;;20.02;2.80;;;;;;;26.11;24.35;100346.81;5175998;27;20038;-90
2021/06/17 12:59:54;;;;;;;3.58;2.03;;;;;;;26.05;24.44;100343.59;5177686;27;20126;-79
2021/06/17 13:02:23;;;;;;;8.45;2.35;;;;;;;25.83;23.47;100353.06;5176921;27;20486;-82
2021/06/17 13:05:19;;;;;;;24.52;3.75;;;;;;;25.83;24.28;100353.06;5173892;27;20060;-95
2021/06/17 13:08:11;;;;;;;12.70;2.67;;;;;;;25.92;23.47;100350.72;5175954;27;20049;-80
2021/06/17 13:10:42;;;;;;;24.42;3.10;;;;;;;25.96;25.56;100354.34;5176002;27;20053;-93
2021/06/17 13:13:14;;;;;;;23.27;3.83;;;;;;;25.90;23.98;100347.53;5158618;27;20046;-91
2021/06/17 13:15:41;;;;;;;16.83;2.72;;;;;;;25.95;22.96;100339.53;5164361;27;20126;-84
2021/06/17 13:18:09;;;;;;;16.55;2.65;;;;;;;26.12;25.55;100354.81;5164703;27;20050;-80
2021/06/17 13:20:48;;;;;;;8.13;4.10;;;;;;;26.31;24.75;100345.28;5157840;27;20518;-90
2021/06/17 13:23:22;;;;;;;12.35;2.50;;;;;;;26.17;24.40;100348.06;5164620;27;20046;-85
2021/06/17 13:26:18;;;;;;;12.35;2.72;;;;;;;26.12;24.65;100349.22;5160643;27;20049;-80
2021/06/17 13:28:45;;;;;;;;;;;;;;;26.31;25.52;100362.13;5135422;27;20145;-89
2021/06/17 13:31:18;;;;;;;28.15;3.30;;;;;;;26.31;25.95;100361.31;5161904;27;19919;-80
2021/06/17 13:33:45;;;;;;;4.72;2.17;;;;;;;26.05;24.56;100360.41;5139124;27;20118;-91
2021/06/17 13:36:13;;;;;;;5.65;2.03;;;;;;;25.99;25.25;100353.56;5161885;27;20767;-80
2021/06/17 13:38:40;;;;;;;26.30;3.40;;;;;;;25.99;25.65;100351.59;5155451;27;20039;-92
2021/06/17 13:41:07;;;;;;;13.50;2.67;;;;;;;25.92;24.74;100348.72;5159805;27;20605;-80
2021/06/17 13:43:33;;;;;;;17.48;2.63;;;;;;;26.01;23.67;100371.59;5163750;27;20036;-82
2021/06/17 13:45:59;;;;;;;15.18;2.72;;;;;;;25.90;22.98;100356.72;5154967;27;20031;-84
2021/06/17 13:48:25;;;;;;;11.93;3.92;;;;;;;26.01;24.68;100354.78;5153277;27;20035;-83
2021/06/17 13:50:52;;;;;;;4.57;2.00;;;;;;;25.96;22.59;100341.16;5133683;27;20079;-81
2021/06/17 13:53:18;;;;;;;24.15;3.65;;;;;;;26.12;23.20;100342.81;5153325;27;20115;-81
2021/06/17 13:55:45;;;;;;;8.85;2.08;;;;;;;26.09;23.66;100347.19;5152379;27;20046;-88
2021/06/17 13:58:12;;;;;;;9.40;2.47;;;;;;;25.90;22.66;100339.13;5151395;27;20035;-80
2021/06/17 14:00:40;;;;;;;67.60;6.07;;;;;;;25.87;24.28;100337.91;5152670;27;20039;-94
2021/06/17 14:03:08;;;;;;;30.23;3.83;;;;;;;25.97;25.71;100337.16;5151890;27;20031;-81
2021/06/17 14:05:35;;;;;;;13.93;2.60;;;;;;;26.10;24.50;100337.63;5150691;27;20049;-92
2021/06/17 14:08:01;;;;;;;;;;;;;;;26.12;23.91;100340.00;5164730;27;20044;-83
2021/06/17 14:10:28;;;;;;;19.90;2.90;;;;;;;26.06;24.40;100334.00;5137960;27;20017;-94
2021/06/17 14:12:56;;;;;;;14.63;3.05;;;;;;;26.10;24.20;100336.81;5132558;27;20038;-95
2021/06/17 14:15:22;;;;;;;7.07;1.90;;;;;;;26.00;22.60;100330.75;5142561;27;20046;-80
2021/06/17 14:17:48;;;;;;;11.65;2.30;;;;;;;25.83;23.58;100331.47;5170691;27;20561;-81
2021/06/17 14:20:14;;;;;;;8.98;2.20;;;;;;;25.97;23.42;100334.34;5172532;27;20075;-79
2021/06/17 14:22:41;;;;;;;26.40;2.72;;;;;;;26.03;23.72;100331.97;5180608;27;20043;-80
2021/06/17 14:25:09;;;;;;;16.05;2.90;;;;;;;26.28;22.98;100312.44;5177574;27;20110;-79
2021/06/17 14:27:35;;;;;;;16.98;2.65;;;;;;;26.37;23.60;100326.91;5156318;27;20049;-80
2021/06/17 14:30:02;;;;;;;15.43;2.35;;;;;;;26.42;23.36;100334.09;5155963;27;20074;-80
2021/06/17 14:32:28;;;;;;;7.93;1.92;;;;;;;26.52;23.49;100338.16;5160242;27;20038;-80
2021/06/17 14:34:54;;;;;;;49.17;4.03;;;;;;;26.53;24.03;100339.81;5176445;27;20086;-79
2021/06/17 14:37:20;;;;;;;15.93;3.20;;;;;;;26.58;24.82;100336.59;5152697;27;20050;-80
2021/06/17 14:39:46;;;;;;;19.17;2.72;;;;;;;26.36;23.56;100342.13;5147558;27;20025;-80
2021/06/17 14:42:13;;;;;;;7.75;2.00;;;;;;;26.10;23.18;100331.22;5150743;27;20034;-80
2021/06/17 14:44:39;;;;;;;11.77;2.50;;;;;;;26.08;24.73;100325.97;5149375;27;20062;-80
2021/06/17 14:47:05;;;;;;;7.90;2.92;;;;;;;25.93;23.76;100344.75;5150147;27;20070;-78
2021/06/17 14:49:31;;;;;;;38.85;5.60;;;;;;;26.13;25.67;100341.63;5155216;27;20129;-79
2021/06/17 14:51:57;;;;;;;7.65;2.30;;;;;;;26.10;25.11;100342.41;5166784;27;20476;-82
2021/06/17 14:54:23;;;;;;;5.35;2.00;;;;;;;25.81;23.96;100342.25;5167286;27;20042;-78
2021/06/17 14:56:52;;;;;;;4.88;2.00;;;;;;;25.86;23.41;100346.69;5129623;27;20559;-78
2021/06/17 14:59:19;;;;;;;15.75;2.40;;;;;;;26.04;24.81;100355.19;5146675;27;20651;-79
2021/06/17 15:01:48;;;;;;;6.80;2.30;;;;;;;26.05;22.95;100354.78;5145591;27;20039;-79
2021/06/17 15:04:16;;;;;;;45.85;4.68;;;;;;;26.05;23.23;100357.59;5146282;27;20129;-80
2021/06/17 15:06:43;;;;;;;22.25;3.00;;;;;;;26.07;23.57;100341.19;5165522;27;20039;-80
2021/06/17 15:09:09;;;;;;;;;;;;;;;26.20;23.93;100348.06;5148832;27;20050;-79
2021/06/17 15:11:36;;;;;;;53.88;5.60;;;;;;;26.01;24.58;100332.34;5144690;27;19958;-81
2021/06/17 15:14:04;;;;;;;29.33;3.65;;;;;;;26.10;24.27;100350.84;5144666;27;20615;-77
2021/06/17 15:16:38;;;;;;;8.65;2.45;;;;;;;26.00;23.56;100355.97;5143668;27;20874;-80
2021/06/17 15:19:05;;;;;;;37.60;4.57;;;;;;;26.12;23.23;100365.22;5125383;27;20070;-79
2021/06/17 15:21:32;;;;;;;23.30;3.72;;;;;;;26.15;24.53;100348.44;5159105;27;20042;-77
2021/06/17 15:23:58;;;;;;;;;;;;;;;26.13;23.87;100355.66;5164108;27;20060;-83
2021/06/17 15:26:25;;;;;;;25.27;3.03;;;;;;;26.06;23.73;100367.63;5152410;27;19922;-79
2021/06/17 15:28:52;;;;;;;5.10;1.65;;;;;;;26.04;23.54;100360.81;5125213;27;20345;-80
2021/06/17 15:31:19;;;;;;;9.60;2.70;;;;;;;26.11;22.47;100356.03;5142571;27;20549;-88
2021/06/17 15:33:46;;;;;;;18.10;2.90;;;;;;;26.09;23.51;100354.81;5142436;27;20046;-79
2021/06/17 15:36:12;;;;;;;8.18;2.83;;;;;;;26.09;23.39;100363.22;5142392;27;20062;-79
2021/06/17 15:38:41;;;;;;;7.68;2.30;;;;;;;25.83;23.73;100369.88;5152405;27;21023;-84
2021/06/17 15:41:08;;;;;;;6.43;2.80;;;;;;;25.66;24.32;100371.34;5124884;27;20123;-79